Liezen, Austria
Current Conditions -  °F | °C
As of 7:50 PM on Monday 20 Oct 2014 (Local Time) from LOXZ Reporting Station
Broken Clouds Broken Clouds  
Wind Chill: 54°   Ceiling: 25000
Heat Index: 54°   Visibility: 13mi
Dew Point: 50°   Wind: 0mph
Humidity: 88%   Direction: NA
Pressure: 30.06"   Gusts: NA
Location:  47.57°N, 14.24°E
Report Text: LOXZ 201750Z 00000KT 20KM BKN250CI 12/10 Q1018 RMK BKN
Loading
Personal Weather Stations






























Interactive Weather Map
Tropical Storm Tracking
New forecast layout! Learn more

10-Day Weather Forecast

Advertisements
Track Severe Weather on mobile